Disclaimer

Please do not use the information listed here in-flight or in-navigation, as they are not provided to us by the airports but are provided by volunteers, so they might be outdated.

Search


Regions


Airport information page

Radio informations:
Tower (TWR) - 118.0 MHz

Airport informations:
Latitude: 68° 36' 26.17" N
Longitude: 027° 24' 19.18" E
Elevation: 481 feet - 147 meters
Operating hours: N/A
Operating agency: Civil government, landing fees and diplomatic clearance may be required
Timezone: UTC+2(+3DT) - Last Sunday in March to last Sunday in October
Fuel: Jet A1, without icing nhibitor.

100/130 MIL Spec, low lead, aviation gasoline (BLUE)

Runway information:
04/22 - 8199 x 148 feet< - >2499 x 45 meters
08/26 - 2625 x 148 feet< - >800 x 45 meters

Recent METARs:
EFIV 151620Z 23010KT 9999 -SHSN OVC007 M11/M12 Q1029
EFIV 151650Z 23010KT 9999 -SHSN OVC007 M10/M12 Q1029
EFIV 151720Z 23008KT 9999 -SHSN OVC007 M10/M12 Q1029

Airport on the map: